createdAt,value
2023-03-26T00:01:38.197Z,95.53
2023-03-26T00:04:06.149Z,95.77
2023-03-26T00:06:38.366Z,95.94
2023-03-26T00:09:06.748Z,95.84
2023-03-26T00:11:38.175Z,95.64
2023-03-26T00:14:09.108Z,95.46
2023-03-26T00:16:36.436Z,95.57
2023-03-26T00:19:03.541Z,95.63
2023-03-26T00:21:31.069Z,95.53
2023-03-26T00:24:06.026Z,95.15
2023-03-26T00:26:33.892Z,95.46
2023-03-26T00:29:02.798Z,95.20
2023-03-26T00:31:30.655Z,95.02
2023-03-26T00:34:03.275Z,95.26
2023-03-26T00:36:31.537Z,94.97
2023-03-26T00:38:58.425Z,95.10
2023-03-26T00:41:30.268Z,95.54
2023-03-26T00:43:58.205Z,95.01
2023-03-26T00:46:28.285Z,94.60
2023-03-26T00:48:59.227Z,93.67
2023-03-26T00:51:26.513Z,93.56
2023-03-26T00:56:01.314Z,93.34
2023-03-26T00:58:30.222Z,93.55
2023-03-26T01:01:00.696Z,93.77
2023-03-26T01:03:35.152Z,93.46
2023-03-26T01:06:08.164Z,93.84
2023-03-26T01:08:48.137Z,93.81
2023-03-26T01:11:20.172Z,94.16
2023-03-26T01:13:56.560Z,94.16
2023-03-26T01:16:38.261Z,94.33
2023-03-26T01:19:34.145Z,94.58
2023-03-26T01:22:03.045Z,94.83
2023-03-26T01:24:31.784Z,94.67
2023-03-26T01:27:27.531Z,94.42
2023-03-26T01:30:07.286Z,94.92
2023-03-26T01:32:44.221Z,94.68
2023-03-26T01:35:35.356Z,94.63
2023-03-26T01:38:25.025Z,94.98
2023-03-26T01:41:00.879Z,94.68
2023-03-26T01:43:32.306Z,94.84
2023-03-26T01:46:02.353Z,94.95
2023-03-26T01:48:36.556Z,95.16
2023-03-26T01:51:05.675Z,94.94
2023-03-26T01:53:35.498Z,95.08
2023-03-26T01:56:12.843Z,95.23
2023-03-26T01:59:08.555Z,95.48
2023-03-26T02:01:47.925Z,95.50
2023-03-26T02:04:26.641Z,95.89
2023-03-26T02:07:06.526Z,96.49
2023-03-26T02:09:42.389Z,95.85
2023-03-26T02:12:16.702Z,95.03
2023-03-26T02:14:45.234Z,95.11
2023-03-26T02:17:13.620Z,95.11
2023-03-26T02:19:42.946Z,95.35
2023-03-26T02:22:15.993Z,95.22
2023-03-26T02:24:46.174Z,95.37
2023-03-26T02:27:18.564Z,95.77
2023-03-26T02:29:47.823Z,95.64
2023-03-26T02:32:19.373Z,96.65
2023-03-26T02:34:48.102Z,96.52
2023-03-26T02:37:19.275Z,95.97
2023-03-26T02:39:48.827Z,95.87
2023-03-26T02:42:31.908Z,95.66
2023-03-26T02:45:00.721Z,95.48
2023-03-26T02:47:47.868Z,95.01
2023-03-26T02:50:46.192Z,95.02
2023-03-26T02:53:33.019Z,94.87
2023-03-26T02:56:28.182Z,95.14
2023-03-26T02:59:13.981Z,94.71
2023-03-26T03:01:44.026Z,93.93
2023-03-26T03:04:13.064Z,94.01
2023-03-26T03:06:44.786Z,94.07
2023-03-26T03:09:13.391Z,94.29
2023-03-26T03:11:44.266Z,93.80
2023-03-26T03:14:13.091Z,93.35
2023-03-26T03:16:43.942Z,93.52
2023-03-26T03:19:13.018Z,93.82
2023-03-26T03:21:46.616Z,93.87
2023-03-26T03:24:18.663Z,92.75
2023-03-26T03:26:50.391Z,92.85
2023-03-26T03:29:33.516Z,93.26
2023-03-26T03:32:24.574Z,93.11
2023-03-26T03:34:56.693Z,92.79
2023-03-26T03:37:27.182Z,92.56
2023-03-26T03:39:56.267Z,92.70
2023-03-26T03:42:27.643Z,92.43
2023-03-26T03:44:57.725Z,92.30
2023-03-26T03:47:53.464Z,92.13
2023-03-26T03:50:27.783Z,92.07
2023-03-26T03:53:26.207Z,92.64
2023-03-26T03:56:17.771Z,92.89
2023-03-26T03:59:11.943Z,92.90
2023-03-26T04:01:43.236Z,92.60
2023-03-26T04:04:17.596Z,92.77
2023-03-26T04:06:53.209Z,92.96
2023-03-26T04:09:21.564Z,92.58
2023-03-26T04:11:51.141Z,92.27
2023-03-26T04:14:36.432Z,92.19
2023-03-26T04:17:15.969Z,91.93
2023-03-26T04:19:44.885Z,92.63
2023-03-26T04:22:14.048Z,92.46
2023-03-26T04:24:50.365Z,92.43
2023-03-26T04:27:32.227Z,92.18
2023-03-26T04:30:15.812Z,92.17
2023-03-26T04:32:47.109Z,92.21
2023-03-26T04:35:16.802Z,91.92
2023-03-26T04:37:54.116Z,91.71
2023-03-26T04:40:30.733Z,91.23
2023-03-26T04:43:18.156Z,91.15
2023-03-26T04:46:05.678Z,91.64
2023-03-26T04:48:38.936Z,91.98
2023-03-26T04:51:10.284Z,91.45
2023-03-26T04:53:40.459Z,90.82
2023-03-26T04:56:48.375Z,90.10
2023-03-26T04:59:41.550Z,90.54
2023-03-26T05:02:16.221Z,89.91
2023-03-26T05:04:51.100Z,89.51
2023-03-26T05:07:22.590Z,89.65
2023-03-26T05:09:55.020Z,89.78
2023-03-26T05:12:44.695Z,89.16
2023-03-26T05:15:26.538Z,89.19
2023-03-26T05:18:16.736Z,89.34
2023-03-26T05:20:49.094Z,88.93
2023-03-26T05:23:19.433Z,88.91
2023-03-26T05:25:54.444Z,89.04
2023-03-26T05:28:26.895Z,88.60
2023-03-26T05:31:24.064Z,87.68
2023-03-26T05:33:55.551Z,87.43
2023-03-26T05:36:28.476Z,87.90
2023-03-26T05:39:25.802Z,87.95
2023-03-26T05:41:56.881Z,88.04
2023-03-26T05:44:33.567Z,88.02
2023-03-26T05:47:05.771Z,88.43
2023-03-26T05:49:34.596Z,89.15
2023-03-26T05:52:06.236Z,89.24
2023-03-26T05:54:54.934Z,89.38
2023-03-26T05:57:52.458Z,89.81
2023-03-26T06:00:43.270Z,90.08
2023-03-26T06:03:12.947Z,89.84
2023-03-26T06:06:16.615Z,89.76
2023-03-26T06:09:02.345Z,90.34
2023-03-26T06:11:32.151Z,89.57
2023-03-26T06:14:43.585Z,89.08
2023-03-26T06:17:19.811Z,89.30
2023-03-26T06:20:12.653Z,89.01
2023-03-26T06:22:44.074Z,88.99
2023-03-26T06:25:23.804Z,88.66
2023-03-26T06:28:16.008Z,88.97
2023-03-26T06:30:59.278Z,87.87
2023-03-26T06:33:53.439Z,87.26
2023-03-26T06:36:21.740Z,86.78
2023-03-26T06:38:51.633Z,85.78
2023-03-26T06:41:19.880Z,86.17
2023-03-26T06:44:00.544Z,85.77
2023-03-26T06:46:48.802Z,85.23
2023-03-26T06:49:45.334Z,83.95
2023-03-26T06:52:41.819Z,83.10
2023-03-26T06:55:24.835Z,81.84
2023-03-26T06:58:19.233Z,81.20
2023-03-26T07:01:06.349Z,80.75
2023-03-26T07:03:53.634Z,81.22
2023-03-26T07:06:40.765Z,81.39
2023-03-26T07:09:30.700Z,79.33
2023-03-26T07:12:17.661Z,78.69
2023-03-26T07:15:14.818Z,78.72
2023-03-26T07:17:53.919Z,79.51
2023-03-26T07:20:33.865Z,77.36
2023-03-26T07:23:02.904Z,77.56
2023-03-26T07:25:59.491Z,77.80
2023-03-26T07:28:40.719Z,77.91
2023-03-26T07:32:09.626Z,77.01
2023-03-26T07:34:49.408Z,76.88
2023-03-26T07:38:22.977Z,77.07
2023-03-26T07:41:36.133Z,77.08
2023-03-26T07:44:55.842Z,76.97
2023-03-26T07:47:47.280Z,76.72
2023-03-26T07:50:28.712Z,77.23
2023-03-26T07:53:11.191Z,77.82
2023-03-26T07:56:26.595Z,77.25
2023-03-26T07:59:23.152Z,76.84
2023-03-26T08:02:35.353Z,76.51
2023-03-26T08:05:26.166Z,76.10
2023-03-26T08:08:39.964Z,75.60
2023-03-26T08:11:29.582Z,74.86
2023-03-26T08:14:18.399Z,73.94
2023-03-26T08:16:52.742Z,72.53
2023-03-26T08:19:46.144Z,73.10
2023-03-26T08:22:17.530Z,72.20
2023-03-26T08:25:04.644Z,72.29
2023-03-26T08:27:40.391Z,72.24
2023-03-26T08:30:15.046Z,71.16
2023-03-26T08:32:47.052Z,72.13
2023-03-26T08:35:15.583Z,72.20
2023-03-26T08:37:45.416Z,72.08
2023-03-26T08:40:13.919Z,72.27
2023-03-26T08:43:24.121Z,71.53
2023-03-26T08:46:04.353Z,71.72
2023-03-26T08:49:02.090Z,70.67
2023-03-26T08:52:16.500Z,70.82
2023-03-26T08:54:48.710Z,70.18
2023-03-26T08:57:44.687Z,69.77
2023-03-26T09:00:18.299Z,70.05
2023-03-26T09:03:41.770Z,70.66
2023-03-26T09:06:34.614Z,70.84
2023-03-26T09:09:32.372Z,69.84
2023-03-26T09:12:20.466Z,69.91
2023-03-26T09:15:14.306Z,69.97
2023-03-26T09:18:17.414Z,69.29
2023-03-26T09:21:11.989Z,69.59
2023-03-26T09:24:09.283Z,69.11
2023-03-26T09:27:00.026Z,69.08
2023-03-26T09:29:52.980Z,68.05
2023-03-26T09:32:46.310Z,67.92
2023-03-26T09:35:42.188Z,68.15
2023-03-26T09:38:41.142Z,67.68
2023-03-26T09:41:44.845Z,67.60
2023-03-26T09:44:21.682Z,68.55
2023-03-26T09:47:38.452Z,68.99
2023-03-26T09:50:38.457Z,69.44
2023-03-26T09:53:31.619Z,70.22
2023-03-26T09:56:44.743Z,70.85
2023-03-26T09:59:35.440Z,71.01
2023-03-26T10:02:45.478Z,71.41
2023-03-26T10:05:34.464Z,71.89
2023-03-26T10:08:31.563Z,72.13
2023-03-26T10:11:10.608Z,72.37
2023-03-26T10:13:43.566Z,72.13
2023-03-26T10:16:33.300Z,71.55
2023-03-26T10:19:39.735Z,71.33
2023-03-26T10:22:27.458Z,71.52
2023-03-26T10:25:36.292Z,71.50
2023-03-26T10:28:18.597Z,71.13
2023-03-26T10:31:15.236Z,71.94
2023-03-26T10:34:06.584Z,72.55
2023-03-26T10:36:36.320Z,73.76
2023-03-26T10:39:37.850Z,75.01
2023-03-26T10:42:29.297Z,75.72
2023-03-26T10:45:31.996Z,76.47
2023-03-26T10:48:15.566Z,77.14
2023-03-26T10:50:50.232Z,77.64
2023-03-26T10:53:39.381Z,77.71
2023-03-26T10:56:33.389Z,77.33
2023-03-26T10:59:07.140Z,76.46
2023-03-26T11:02:12.217Z,74.54
2023-03-26T11:04:41.072Z,72.58
2023-03-26T11:07:28.241Z,70.41
2023-03-26T11:10:04.505Z,68.85
2023-03-26T11:12:49.436Z,67.71
2023-03-26T11:15:36.163Z,66.16
2023-03-26T11:18:27.560Z,65.93
2023-03-26T11:21:19.370Z,66.30
2023-03-26T11:24:26.634Z,66.45
2023-03-26T11:26:56.294Z,66.67
2023-03-26T11:29:44.579Z,66.39
2023-03-26T11:32:15.683Z,65.94
2023-03-26T11:34:52.575Z,65.52
2023-03-26T11:37:33.263Z,66.50
2023-03-26T11:40:06.484Z,66.90
2023-03-26T11:42:35.948Z,66.79
2023-03-26T11:45:08.246Z,66.84
2023-03-26T11:47:57.634Z,66.31
2023-03-26T11:50:27.781Z,65.62
2023-03-26T11:53:07.174Z,64.74
2023-03-26T11:55:35.732Z,64.35
2023-03-26T11:58:11.658Z,63.68
2023-03-26T12:00:40.406Z,64.79
2023-03-26T12:03:12.155Z,64.26
2023-03-26T12:05:48.574Z,64.53
2023-03-26T12:08:22.081Z,64.20
2023-03-26T12:10:59.230Z,63.99
2023-03-26T12:13:38.018Z,63.21
2023-03-26T12:16:18.841Z,62.91
2023-03-26T12:18:57.634Z,62.56
2023-03-26T12:21:27.771Z,62.47
2023-03-26T12:24:01.064Z,61.51
2023-03-26T12:26:34.481Z,61.09
2023-03-26T12:29:19.051Z,60.72
2023-03-26T12:32:14.721Z,61.29
2023-03-26T12:34:43.473Z,59.80
2023-03-26T12:37:33.721Z,60.33
2023-03-26T12:40:15.173Z,61.13
2023-03-26T12:44:53.176Z,61.30
2023-03-26T12:45:42.578Z,61.47
2023-03-26T12:48:12.312Z,61.00
2023-03-26T12:51:08.312Z,60.93
2023-03-26T12:54:09.817Z,61.70
2023-03-26T12:56:49.906Z,62.06
2023-03-26T12:59:44.226Z,60.60
2023-03-26T13:02:25.723Z,60.54
2023-03-26T13:05:06.146Z,59.55
2023-03-26T13:08:05.605Z,57.45
2023-03-26T13:14:27.714Z,55.08
2023-03-26T13:17:00.670Z,53.75
2023-03-26T13:19:50.080Z,53.96
2023-03-26T13:22:28.976Z,54.38
2023-03-26T13:25:06.925Z,55.06
2023-03-26T13:27:42.988Z,55.58
2023-03-26T13:30:26.454Z,56.35
2023-03-26T13:32:57.996Z,56.65
2023-03-26T13:35:38.551Z,57.69
2023-03-26T13:38:21.011Z,58.49
2023-03-26T13:41:14.335Z,59.22
2023-03-26T13:44:17.603Z,59.34
2023-03-26T13:47:09.019Z,59.44
2023-03-26T13:50:25.543Z,59.74
2023-03-26T13:52:55.357Z,60.06
2023-03-26T13:55:36.925Z,60.17
2023-03-26T13:58:10.332Z,59.91
2023-03-26T14:00:47.175Z,60.08
2023-03-26T14:03:42.355Z,60.18
2023-03-26T14:06:30.064Z,60.74
2023-03-26T14:09:06.081Z,61.62
2023-03-26T14:11:43.255Z,62.05
2023-03-26T14:14:12.790Z,62.19
2023-03-26T14:16:55.773Z,62.40
2023-03-26T14:19:48.361Z,62.05
2023-03-26T14:22:33.162Z,62.30
2023-03-26T14:25:19.049Z,62.44
2023-03-26T14:28:11.074Z,62.77
2023-03-26T14:31:00.292Z,63.20
2023-03-26T14:33:53.947Z,63.49
2023-03-26T14:36:45.786Z,63.27
2023-03-26T14:39:22.968Z,63.29
2023-03-26T14:41:58.412Z,63.95
2023-03-26T14:44:48.934Z,65.64
2023-03-26T14:47:18.202Z,67.94
2023-03-26T14:49:52.899Z,69.52
2023-03-26T14:52:41.623Z,70.89
2023-03-26T14:55:23.627Z,70.62
2023-03-26T14:58:23.480Z,71.02
2023-03-26T15:01:08.774Z,71.64
2023-03-26T15:03:57.765Z,71.94
2023-03-26T15:06:59.831Z,71.12
2023-03-26T15:09:43.176Z,71.59
2023-03-26T15:12:40.590Z,71.53
2023-03-26T15:15:45.159Z,71.94
2023-03-26T15:18:27.039Z,71.86
2023-03-26T15:21:12.616Z,71.87
2023-03-26T15:23:39.360Z,71.57
2023-03-26T15:26:44.314Z,71.45
2023-03-26T15:29:43.913Z,70.74
2023-03-26T15:32:40.368Z,70.68
2023-03-26T15:35:20.392Z,70.82
2023-03-26T15:37:53.596Z,71.14
2023-03-26T15:40:26.244Z,71.20
2023-03-26T15:43:04.881Z,71.29
2023-03-26T15:45:53.283Z,71.14
2023-03-26T15:48:57.882Z,71.61
2023-03-26T15:51:27.510Z,70.98
2023-03-26T15:54:29.361Z,71.06
2023-03-26T15:57:19.218Z,71.51
2023-03-26T16:00:14.600Z,72.05
2023-03-26T16:03:09.456Z,71.92
2023-03-26T16:06:03.145Z,72.19
2023-03-26T16:09:28.447Z,72.48
2023-03-26T16:11:57.492Z,72.62
2023-03-26T16:14:42.278Z,72.98
2023-03-26T16:17:13.748Z,73.09
2023-03-26T16:20:07.521Z,72.88
2023-03-26T16:22:43.375Z,73.08
2023-03-26T16:25:27.923Z,72.94
2023-03-26T16:28:07.313Z,72.70
2023-03-26T16:30:35.113Z,72.97
2023-03-26T16:33:17.635Z,73.05
2023-03-26T16:36:13.431Z,72.91
2023-03-26T16:38:50.251Z,72.66
2023-03-26T16:41:19.228Z,72.32
2023-03-26T16:44:10.597Z,72.04
2023-03-26T16:46:58.699Z,71.72
2023-03-26T16:49:40.919Z,71.76
2023-03-26T16:52:24.572Z,71.84
2023-03-26T16:55:30.391Z,71.62
2023-03-26T16:58:23.189Z,71.39
2023-03-26T17:01:21.981Z,71.39
2023-03-26T17:04:04.739Z,71.28
2023-03-26T17:06:49.783Z,70.67
2023-03-26T17:09:51.642Z,70.06
2023-03-26T17:12:31.032Z,70.56
2023-03-26T17:15:16.216Z,70.54
2023-03-26T17:18:15.512Z,70.58
2023-03-26T17:21:10.727Z,70.36
2023-03-26T17:23:39.669Z,70.44
2023-03-26T17:26:28.800Z,70.09
2023-03-26T17:29:26.699Z,69.82
2023-03-26T17:32:10.803Z,70.19
2023-03-26T17:34:37.600Z,70.63
2023-03-26T17:37:20.210Z,70.73
2023-03-26T17:39:46.921Z,70.93
2023-03-26T17:42:26.707Z,70.97
2023-03-26T17:44:57.392Z,71.07
2023-03-26T17:47:51.534Z,71.37
2023-03-26T17:50:29.885Z,71.68
2023-03-26T17:53:04.459Z,71.92
2023-03-26T17:55:33.913Z,71.84
2023-03-26T17:58:02.993Z,72.16
2023-03-26T18:00:37.949Z,72.48
2023-03-26T18:03:13.577Z,72.44
2023-03-26T18:05:43.448Z,72.21
2023-03-26T18:08:13.574Z,72.09
2023-03-26T18:11:05.015Z,72.20
2023-03-26T18:13:44.629Z,72.27
2023-03-26T18:16:20.672Z,71.96
2023-03-26T18:18:57.213Z,72.02
2023-03-26T18:21:45.772Z,71.85
2023-03-26T18:24:23.760Z,72.07
2023-03-26T18:27:12.504Z,72.09
2023-03-26T18:29:57.098Z,72.13
2023-03-26T18:32:40.435Z,72.09
2023-03-26T18:35:17.022Z,72.50
2023-03-26T18:37:45.459Z,72.47
2023-03-26T18:40:20.843Z,72.92
2023-03-26T18:42:56.374Z,72.91
2023-03-26T18:45:24.651Z,72.71
2023-03-26T18:47:51.976Z,73.18
2023-03-26T18:50:23.409Z,73.40
2023-03-26T18:52:50.512Z,73.76
2023-03-26T18:55:17.110Z,73.89
2023-03-26T18:57:44.928Z,73.97
2023-03-26T19:00:20.905Z,73.97
2023-03-26T19:02:49.388Z,74.36
2023-03-26T19:05:16.779Z,74.59
2023-03-26T19:07:45.388Z,74.79
2023-03-26T19:10:18.372Z,74.83
2023-03-26T19:12:45.893Z,74.92
2023-03-26T19:15:14.457Z,74.82
2023-03-26T19:17:55.944Z,74.90
2023-03-26T19:20:25.603Z,74.87
2023-03-26T19:22:55.449Z,74.67
2023-03-26T19:25:29.653Z,74.42
2023-03-26T19:27:57.036Z,74.44
2023-03-26T19:30:32.427Z,74.42
2023-03-26T19:33:13.046Z,74.37
2023-03-26T19:35:45.571Z,74.25
2023-03-26T19:38:23.415Z,74.10
2023-03-26T19:40:51.752Z,73.85
2023-03-26T19:43:18.464Z,73.67
2023-03-26T19:48:45.692Z,74.05
2023-03-26T19:51:18.279Z,73.87
2023-03-26T19:51:34.200Z,74.30
2023-03-26T19:54:13.460Z,74.08
2023-03-26T19:56:40.051Z,73.92
2023-03-26T19:59:07.476Z,74.13
2023-03-26T20:01:35.753Z,74.27
2023-03-26T20:04:05.777Z,74.45
2023-03-26T20:06:43.286Z,74.67
2023-03-26T20:09:11.729Z,74.60
2023-03-26T20:11:39.044Z,74.42
2023-03-26T20:14:15.927Z,74.34
2023-03-26T20:16:44.464Z,74.47
2023-03-26T20:19:13.276Z,74.74
2023-03-26T20:21:45.514Z,74.70
2023-03-26T20:24:14.267Z,74.55
2023-03-26T20:26:40.978Z,74.66
2023-03-26T20:29:07.510Z,74.61
2023-03-26T20:31:34.115Z,74.86
2023-03-26T20:34:00.928Z,74.81
2023-03-26T20:36:34.077Z,74.99
2023-03-26T20:39:04.983Z,74.70
2023-03-26T20:41:40.969Z,74.63
2023-03-26T20:44:12.996Z,74.58
2023-03-26T20:46:39.739Z,74.86
2023-03-26T20:49:06.576Z,74.99
2023-03-26T20:51:33.296Z,75.26
2023-03-26T20:54:07.211Z,75.15
2023-03-26T20:56:37.045Z,75.07
2023-03-26T20:59:11.135Z,75.26
2023-03-26T21:01:38.999Z,75.29
2023-03-26T21:04:06.295Z,75.35
2023-03-26T21:06:32.868Z,75.48
2023-03-26T21:09:01.694Z,75.50
2023-03-26T21:11:47.753Z,75.50
2023-03-26T21:14:30.148Z,75.61
2023-03-26T21:16:57.506Z,75.45
2023-03-26T21:19:24.851Z,75.62
2023-03-26T21:22:31.087Z,75.86
2023-03-26T21:24:57.783Z,75.77
2023-03-26T21:27:27.685Z,75.87
2023-03-26T21:29:54.988Z,75.90
2023-03-26T21:32:23.034Z,76.07
2023-03-26T21:34:58.717Z,76.37
2023-03-26T21:37:25.876Z,76.50
2023-03-26T21:39:52.799Z,76.68
2023-03-26T21:42:19.911Z,76.74
2023-03-26T21:44:47.179Z,76.59
2023-03-26T21:47:21.244Z,76.79
2023-03-26T21:49:48.239Z,76.89
2023-03-26T21:52:15.468Z,76.95
2023-03-26T21:54:43.909Z,76.95
2023-03-26T21:57:46.609Z,77.22
2023-03-26T22:00:20.794Z,76.90
2023-03-26T22:03:12.256Z,76.95
2023-03-26T22:06:09.062Z,77.09
2023-03-26T22:08:40.206Z,77.00
2023-03-26T22:11:07.675Z,77.20
2023-03-26T22:13:40.214Z,77.11
2023-03-26T22:16:08.342Z,77.08
2023-03-26T22:18:34.987Z,76.89
2023-03-26T22:21:01.816Z,76.97
2023-03-26T22:23:37.549Z,77.07
2023-03-26T22:26:05.355Z,77.08
2023-03-26T22:28:34.791Z,77.11
2023-03-26T22:31:08.443Z,76.77
2023-03-26T22:33:36.066Z,76.88
2023-03-26T22:36:03.005Z,76.90
2023-03-26T22:38:30.076Z,77.14
2023-03-26T22:40:57.501Z,77.19
2023-03-26T22:43:25.514Z,77.01
2023-03-26T22:45:56.541Z,77.04
2023-03-26T22:48:23.556Z,77.21
2023-03-26T22:51:01.996Z,77.23
2023-03-26T22:53:29.293Z,77.48
2023-03-26T22:55:56.029Z,77.71
2023-03-26T22:58:22.725Z,77.68
2023-03-26T23:00:52.921Z,77.84
2023-03-26T23:03:20.274Z,77.98
2023-03-26T23:06:05.855Z,78.15
2023-03-26T23:08:34.285Z,78.45
2023-03-26T23:11:01.838Z,78.44
2023-03-26T23:13:30.360Z,78.64
2023-03-26T23:15:57.461Z,78.75
2023-03-26T23:18:24.374Z,78.97
2023-03-26T23:20:54.833Z,79.01
2023-03-26T23:23:26.601Z,79.15
2023-03-26T23:25:59.314Z,78.94
2023-03-26T23:28:26.805Z,79.06
2023-03-26T23:30:54.085Z,79.10
2023-03-26T23:33:24.422Z,79.35
2023-03-26T23:35:52.629Z,79.55
2023-03-26T23:38:27.334Z,79.69
2023-03-26T23:41:14.126Z,79.62
2023-03-26T23:43:53.710Z,79.43
2023-03-26T23:46:29.766Z,79.44
2023-03-26T23:48:59.020Z,79.67
2023-03-26T23:51:29.449Z,79.80
2023-03-26T23:53:56.395Z,79.69
2023-03-26T23:56:23.814Z,79.42
2023-03-26T23:58:51.301Z,79.46
